Dresden Airport


Codes: EDDC/DRS
Name: Dresden Airport
City: Dresden
Country: Germany
Elevation: 755 ft.
Website:
Wikipedia:

Photos at Dresden Airport


   Photos courtesy of SpottingLog. You can add your own sightings and photos by signing up for a free trial today.



D-ABIC, 19-Sep-2013
© Oliver Holzbauer


Weather at Dresden Airport


Time (UTC)DescriptionTempratureWindCloud coverageVisibilityPressureHumidity
18-Apr-2024 00:00Clear Sky3°C4 mph, SW0%10000m1011hPa87%
18-Apr-2024 03:00Few Clouds3°C4 mph, NW21%10000m1011hPa88%
18-Apr-2024 06:00Scattered Clouds3°C4 mph, NW48%10000m1013hPa87%
18-Apr-2024 09:00Broken Clouds7°C7 mph, N84%10000m1015hPa60%
18-Apr-2024 12:00Light Rain9°C11 mph, N88%10000m1015hPa45%
18-Apr-2024 15:00Overcast Clouds10°C9 mph, NW99%10000m1016hPa45%
18-Apr-2024 18:00Broken Clouds6°C4 mph, NW76%10000m1016hPa66%
18-Apr-2024 21:00Few Clouds4°C7 mph, SW11%10000m1017hPa73%
19-Apr-2024 00:00Scattered Clouds3°C7 mph, SW37%10000m1016hPa74%
19-Apr-2024 03:00Light Rain4°C9 mph, SW100%10000m1014hPa77%
19-Apr-2024 06:00Light Rain6°C13 mph, SW100%10000m1012hPa70%
19-Apr-2024 09:00Light Rain8°C18 mph, SW100%10000m1009hPa64%
19-Apr-2024 12:00Light Rain5°C18 mph, SW100%2224m1007hPa92%
19-Apr-2024 15:00Light Rain4°C16 mph, N100%0m1005hPa96%
19-Apr-2024 18:00Light Rain4°C13 mph, SW100%9504m1005hPa95%
19-Apr-2024 21:00Light Rain3°C13 mph, N100%0m1006hPa97%
20-Apr-2024 00:00Overcast Clouds3°C11 mph, W97%10000m1006hPa94%
20-Apr-2024 03:00Light Rain3°C7 mph, N100%0m1008hPa98%
20-Apr-2024 06:00Light Rain4°C4 mph, N100%0m1010hPa98%
20-Apr-2024 09:00Light Rain3°C11 mph, NW100%40m1014hPa98%
20-Apr-2024 12:00Light Rain5°C11 mph, N100%0m1017hPa95%
20-Apr-2024 15:00Light Rain5°C11 mph, N100%10000m1019hPa82%
20-Apr-2024 18:00Light Rain3°C2 mph, N100%10000m1021hPa81%
20-Apr-2024 21:00Broken Clouds0°C2 mph, N81%10000m1023hPa86%
21-Apr-2024 00:00Broken Clouds-1°C2 mph, NW75%10000m1024hPa87%
21-Apr-2024 03:00Scattered Clouds-2°C2 mph, NW37%10000m1025hPa89%
21-Apr-2024 06:00Scattered Clouds-0°C4 mph, N37%10000m1025hPa79%
21-Apr-2024 09:00Scattered Clouds5°C9 mph, NE39%10000m1025hPa48%
21-Apr-2024 12:00Broken Clouds6°C9 mph, NE69%10000m1025hPa44%
21-Apr-2024 15:00Overcast Clouds7°C11 mph, NE100%10000m1024hPa46%
21-Apr-2024 18:00Light Rain3°C7 mph, N91%10000m1025hPa71%
21-Apr-2024 21:00Clear Sky-0°C4 mph, NE10%10000m1026hPa91%
22-Apr-2024 00:00Scattered Clouds0°C4 mph, N37%6932m1026hPa95%
22-Apr-2024 03:00Light Snow-2°C4 mph, NW94%10000m1026hPa94%
22-Apr-2024 06:00Overcast Clouds0°C4 mph, N88%10000m1026hPa83%
22-Apr-2024 09:00Overcast Clouds5°C9 mph, N100%10000m1025hPa72%
22-Apr-2024 12:00Light Rain4°C7 mph, N100%10000m1025hPa87%
22-Apr-2024 15:00Overcast Clouds7°C7 mph, N100%10000m1023hPa68%
22-Apr-2024 18:00Overcast Clouds5°C4 mph, N100%10000m1023hPa81%
22-Apr-2024 21:00Overcast Clouds4°C9 mph, NE100%10000m1024hPa84%